createdAt,value
2018-06-03T00:01:24.562Z,3.47
2018-06-03T00:05:30.005Z,3.50
2018-06-03T00:09:35.180Z,3.27
2018-06-03T00:13:39.943Z,3.50
2018-06-03T00:17:44.661Z,3.30
2018-06-03T00:21:52.353Z,4.97
2018-06-03T00:25:57.549Z,4.33
2018-06-03T00:30:02.239Z,4.50
2018-06-03T00:34:07.343Z,3.70
2018-06-03T00:38:12.862Z,4.10
2018-06-03T00:42:19.337Z,3.67
2018-06-03T00:46:24.127Z,3.70
2018-06-03T00:50:28.634Z,4.13
2018-06-03T00:54:34.249Z,4.60
2018-06-03T00:58:40.151Z,4.27
2018-06-03T01:02:45.597Z,4.23
2018-06-03T01:06:51.252Z,3.80
2018-06-03T01:10:57.434Z,3.03
2018-06-03T01:15:01.962Z,3.43
2018-06-03T01:19:06.567Z,4.00
2018-06-03T01:23:12.391Z,3.20
2018-06-03T01:27:17.587Z,4.20
2018-06-03T01:31:22.766Z,4.90
2018-06-03T01:35:27.710Z,3.27
2018-06-03T01:39:33.735Z,3.77
2018-06-03T01:43:38.825Z,3.37
2018-06-03T01:47:44.141Z,3.77
2018-06-03T01:51:48.102Z,3.70
2018-06-03T01:55:53.210Z,4.87
2018-06-03T01:59:57.991Z,3.93
2018-06-03T02:04:03.855Z,3.67
2018-06-03T02:08:08.302Z,3.20
2018-06-03T02:12:13.138Z,4.00
2018-06-03T02:16:18.302Z,3.87
2018-06-03T02:20:22.843Z,3.60
2018-06-03T02:24:28.111Z,3.80
2018-06-03T02:28:33.794Z,3.63
2018-06-03T02:32:38.791Z,2.87
2018-06-03T02:36:43.952Z,3.43
2018-06-03T02:40:48.895Z,3.90
2018-06-03T02:44:53.548Z,3.70
2018-06-03T02:48:58.781Z,4.50
2018-06-03T02:53:03.610Z,4.60
2018-06-03T02:57:08.235Z,3.70
2018-06-03T03:01:13.501Z,4.80
2018-06-03T03:05:18.241Z,4.23
2018-06-03T03:09:22.823Z,4.80
2018-06-03T03:13:28.981Z,4.37
2018-06-03T03:17:34.663Z,3.30
2018-06-03T03:21:39.112Z,3.83
2018-06-03T03:25:43.394Z,3.90
2018-06-03T03:29:49.038Z,5.53
2018-06-03T03:33:55.571Z,4.10
2018-06-03T03:38:00.255Z,4.90
2018-06-03T03:42:05.039Z,5.20
2018-06-03T03:46:12.090Z,5.60
2018-06-03T03:50:16.371Z,4.33
2018-06-03T03:54:20.766Z,5.20
2018-06-03T03:58:25.029Z,4.40
2018-06-03T04:02:29.402Z,6.10
2018-06-03T04:06:33.148Z,5.17
2018-06-03T04:10:37.704Z,6.40
2018-06-03T04:14:42.000Z,7.00
2018-06-03T04:18:45.820Z,6.20
2018-06-03T04:22:50.143Z,6.00
2018-06-03T04:26:54.806Z,6.67
2018-06-03T04:30:59.073Z,4.90
2018-06-03T04:35:04.473Z,5.17
2018-06-03T04:39:09.240Z,5.57
2018-06-03T04:43:13.602Z,4.10
2018-06-03T04:47:17.945Z,5.00
2018-06-03T04:51:22.192Z,4.50
2018-06-03T04:55:35.446Z,4.50
2018-06-03T04:59:40.118Z,3.97
2018-06-03T05:03:45.661Z,4.30
2018-06-03T05:07:49.994Z,3.50
2018-06-03T05:11:54.302Z,4.00
2018-06-03T05:15:58.531Z,3.60
2018-06-03T05:20:02.810Z,4.00
2018-06-03T05:24:07.121Z,3.70
2018-06-03T05:28:11.342Z,3.83
2018-06-03T05:32:15.562Z,2.77
2018-06-03T05:36:20.005Z,3.37
2018-06-03T05:40:23.733Z,2.93
2018-06-03T05:44:27.928Z,3.23
2018-06-03T05:48:32.345Z,3.43
2018-06-03T05:52:36.707Z,2.90
2018-06-03T05:56:43.704Z,3.80
2018-06-03T06:00:48.230Z,3.20
2018-06-03T06:04:52.469Z,3.70
2018-06-03T06:08:56.374Z,3.00
2018-06-03T06:13:00.647Z,3.37
2018-06-03T06:17:06.147Z,3.63
2018-06-03T06:21:10.397Z,3.60
2018-06-03T06:25:14.624Z,3.00
2018-06-03T06:29:20.080Z,3.70
2018-06-03T06:33:24.468Z,3.53
2018-06-03T06:37:28.667Z,2.70
2018-06-03T06:41:32.570Z,3.37
2018-06-03T06:45:36.860Z,3.00
2018-06-03T06:49:41.152Z,3.47
2018-06-03T06:53:45.201Z,4.20
